New Square, New York
Current Conditions -  °F | °C
As of 9:56 PM on Thursday 27 Nov 2014 (Local Time) from KHPN Reporting Station
Overcast Overcast  
Wind Chill: 25°   Ceiling: 3800
Heat Index: 33°   Visibility: 10mi
Dew Point: 28°   Wind: 10mph
Humidity: 82%   Direction: 330°NNW
Pressure: 30.02"   Gusts: NA
Location:  41.1194°N, 74.0479°W
Report Text: KHPN 280256Z 33009KT 10SM SCT020 OVC038 01/M02 A3002 RMK AO2 SLP174 T00061022 52006
Loading
Personal Weather Stations






























Interactive Weather Map New forecast layout! Learn more

10-Day Weather Forecast

Advertisements
Track Severe Weather on mobile